createdAt,value
2018-09-05T00:02:21.782Z,15.39
2018-09-05T00:04:51.001Z,15.22
2018-09-05T00:07:20.694Z,15.06
2018-09-05T00:09:49.686Z,15.28
2018-09-05T00:12:19.585Z,15.35
2018-09-05T00:14:48.751Z,15.51
2018-09-05T00:17:18.018Z,15.64
2018-09-05T00:19:47.650Z,15.57
2018-09-05T00:22:16.793Z,15.47
2018-09-05T00:24:46.026Z,15.26
2018-09-05T00:27:15.076Z,15.14
2018-09-05T00:29:44.602Z,14.99
2018-09-05T00:32:13.946Z,14.98
2018-09-05T00:34:43.050Z,15.09
2018-09-05T00:37:19.246Z,15.43
2018-09-05T00:39:48.482Z,15.64
2018-09-05T00:42:17.579Z,15.54
2018-09-05T00:44:46.985Z,15.52
2018-09-05T00:47:16.038Z,15.40
2018-09-05T00:49:45.256Z,15.37
2018-09-05T00:52:14.460Z,15.34
2018-09-05T00:54:43.806Z,15.34
2018-09-05T00:57:13.149Z,15.54
2018-09-05T00:59:42.323Z,15.46
2018-09-05T01:02:11.460Z,15.43
2018-09-05T01:04:40.679Z,15.43
2018-09-05T01:07:21.487Z,15.33
2018-09-05T01:09:50.596Z,15.31
2018-09-05T01:12:21.406Z,15.37
2018-09-05T01:14:51.696Z,15.34
2018-09-05T01:17:21.915Z,15.41
2018-09-05T01:19:51.005Z,15.58
2018-09-05T01:22:20.422Z,15.66
2018-09-05T01:24:49.734Z,15.62
2018-09-05T01:27:19.346Z,15.57
2018-09-05T01:29:48.461Z,15.45
2018-09-05T01:32:17.705Z,15.39
2018-09-05T01:34:46.761Z,15.32
2018-09-05T01:37:15.796Z,15.31
2018-09-05T01:39:44.901Z,15.33
2018-09-05T01:42:14.011Z,15.37
2018-09-05T01:44:43.003Z,15.37
2018-09-05T01:47:12.534Z,15.22
2018-09-05T01:49:41.603Z,15.12
2018-09-05T01:52:10.591Z,15.13
2018-09-05T01:54:39.717Z,15.14
2018-09-05T01:57:09.658Z,15.39
2018-09-05T01:59:38.854Z,15.26
2018-09-05T02:02:08.062Z,15.14
2018-09-05T02:04:37.109Z,15.19
2018-09-05T02:07:06.242Z,15.15
2018-09-05T02:09:35.319Z,15.05
2018-09-05T02:12:04.517Z,14.98
2018-09-05T02:14:33.646Z,14.99
2018-09-05T02:17:02.812Z,14.95
2018-09-05T02:19:31.977Z,14.87
2018-09-05T02:22:00.999Z,14.92
2018-09-05T02:24:30.080Z,14.88
2018-09-05T02:26:59.145Z,14.88
2018-09-05T02:29:28.120Z,14.85
2018-09-05T02:31:57.237Z,14.80
2018-09-05T02:35:03.089Z,14.75
2018-09-05T02:37:32.352Z,14.76
2018-09-05T02:40:01.504Z,14.91
2018-09-05T02:42:30.564Z,14.90
2018-09-05T02:44:59.663Z,14.76
2018-09-05T02:47:28.678Z,14.73
2018-09-05T02:49:57.749Z,14.72
2018-09-05T02:52:26.816Z,14.81
2018-09-05T02:54:55.847Z,14.91
2018-09-05T02:57:25.027Z,14.97
2018-09-05T02:59:57.811Z,14.95
2018-09-05T03:02:29.395Z,14.92
2018-09-05T03:04:58.534Z,14.90
2018-09-05T03:07:27.477Z,14.97
2018-09-05T03:09:56.796Z,15.02
2018-09-05T03:12:25.919Z,15.02
2018-09-05T03:14:54.975Z,15.07
2018-09-05T03:17:24.058Z,15.03
2018-09-05T03:19:53.222Z,14.92
2018-09-05T03:22:22.462Z,14.75
2018-09-05T03:24:59.165Z,14.61
2018-09-05T03:27:28.206Z,14.56
2018-09-05T03:29:57.229Z,14.63
2018-09-05T03:32:26.432Z,14.75
2018-09-05T03:34:55.436Z,14.70
2018-09-05T03:37:24.561Z,14.64
2018-09-05T03:42:56.398Z,14.61
2018-09-05T03:45:25.451Z,14.53
2018-09-05T03:47:54.406Z,14.55
2018-09-05T03:50:23.473Z,14.51
2018-09-05T03:52:52.644Z,14.39
2018-09-05T03:55:22.052Z,14.47
2018-09-05T03:57:51.648Z,14.54
2018-09-05T04:00:40.273Z,14.53
2018-09-05T04:03:09.424Z,14.46
2018-09-05T04:05:38.563Z,14.47
2018-09-05T04:08:07.702Z,14.44
2018-09-05T04:10:36.678Z,14.41
2018-09-05T04:13:05.693Z,14.45
2018-09-05T04:15:34.877Z,14.45
2018-09-05T04:18:03.935Z,14.56
2018-09-05T04:20:32.927Z,14.51
2018-09-05T04:23:01.922Z,14.50
2018-09-05T04:25:31.038Z,14.51
2018-09-05T04:28:00.151Z,14.55
2018-09-05T04:30:29.317Z,14.56
2018-09-05T04:32:58.326Z,14.54
2018-09-05T04:35:27.389Z,14.52
2018-09-05T04:37:56.498Z,14.61
2018-09-05T04:40:25.917Z,14.75
2018-09-05T04:42:55.243Z,14.76
2018-09-05T04:45:24.561Z,14.60
2018-09-05T04:47:53.589Z,14.27
2018-09-05T04:50:22.895Z,14.34
2018-09-05T04:52:52.109Z,14.24
2018-09-05T04:55:21.743Z,14.36
2018-09-05T04:57:50.754Z,14.44
2018-09-05T05:00:20.441Z,14.67
2018-09-05T05:02:49.496Z,14.96
2018-09-05T05:05:19.629Z,15.23
2018-09-05T05:07:48.843Z,15.58
2018-09-05T05:10:21.495Z,15.81
2018-09-05T05:12:50.459Z,16.15
2018-09-05T05:15:20.242Z,16.42
2018-09-05T05:17:49.278Z,16.61
2018-09-05T05:20:22.017Z,17.01
2018-09-05T05:22:51.038Z,17.28
2018-09-05T05:25:21.253Z,17.41
2018-09-05T05:27:50.952Z,17.55
2018-09-05T05:30:21.581Z,17.87
2018-09-05T05:32:51.890Z,18.26
2018-09-05T05:35:21.334Z,18.54
2018-09-05T05:37:52.149Z,18.77
2018-09-05T05:40:22.291Z,19.00
2018-09-05T05:42:51.228Z,19.24
2018-09-05T05:45:20.667Z,19.30
2018-09-05T05:47:49.607Z,19.30
2018-09-05T05:50:19.097Z,19.26
2018-09-05T05:52:48.082Z,19.47
2018-09-05T05:55:18.185Z,19.87
2018-09-05T05:57:47.303Z,20.14
2018-09-05T06:00:16.316Z,20.39
2018-09-05T06:02:45.342Z,20.64
2018-09-05T06:05:18.703Z,20.81
2018-09-05T06:07:47.731Z,21.22
2018-09-05T06:10:20.160Z,21.50
2018-09-05T06:12:49.290Z,21.51
2018-09-05T06:15:19.663Z,21.61
2018-09-05T06:17:49.227Z,21.80
2018-09-05T06:20:20.817Z,21.92
2018-09-05T06:22:50.296Z,21.79
2018-09-05T06:25:20.234Z,22.14
2018-09-05T06:27:49.549Z,22.57
2018-09-05T06:30:21.831Z,23.19
2018-09-05T06:32:51.496Z,23.41
2018-09-05T06:35:21.127Z,23.41
2018-09-05T06:37:50.094Z,23.64
2018-09-05T06:40:21.728Z,23.94
2018-09-05T06:42:50.742Z,23.76
2018-09-05T06:45:20.194Z,23.99
2018-09-05T06:47:49.332Z,23.99
2018-09-05T06:50:21.875Z,24.21
2018-09-05T06:52:50.979Z,24.41
2018-09-05T06:55:22.660Z,24.10
2018-09-05T06:57:51.927Z,24.52
2018-09-05T07:00:23.536Z,24.58
2018-09-05T07:02:52.758Z,24.88
2018-09-05T07:05:23.929Z,24.83
2018-09-05T07:07:53.051Z,25.14
2018-09-05T07:10:25.843Z,25.22
2018-09-05T07:12:54.901Z,25.55
2018-09-05T07:15:23.924Z,25.56
2018-09-05T07:17:53.068Z,25.49
2018-09-05T07:20:24.709Z,25.75
2018-09-05T07:22:53.677Z,25.74
2018-09-05T07:25:22.891Z,25.87
2018-09-05T07:27:51.940Z,25.27
2018-09-05T07:30:25.036Z,25.08
2018-09-05T07:32:54.098Z,25.00
2018-09-05T07:35:23.984Z,24.94
2018-09-05T07:37:53.074Z,24.73
2018-09-05T07:40:24.453Z,24.98
2018-09-05T07:42:53.517Z,25.28
2018-09-05T07:45:23.030Z,25.72
2018-09-05T07:47:52.187Z,25.92
2018-09-05T07:50:23.773Z,25.99
2018-09-05T07:52:52.808Z,26.34
2018-09-05T07:55:23.892Z,26.37
2018-09-05T07:57:53.062Z,26.41
2018-09-05T08:00:23.676Z,26.62
2018-09-05T08:02:52.753Z,26.63
2018-09-05T08:05:24.886Z,26.84
2018-09-05T08:07:53.949Z,27.20
2018-09-05T08:10:26.205Z,27.26
2018-09-05T08:12:55.363Z,27.43
2018-09-05T08:15:24.367Z,27.95
2018-09-05T08:17:53.354Z,28.54
2018-09-05T08:20:25.055Z,28.10
2018-09-05T08:22:54.007Z,27.50
2018-09-05T08:25:23.685Z,28.24
2018-09-05T08:27:52.880Z,27.83
2018-09-05T08:30:24.521Z,28.74
2018-09-05T08:32:53.546Z,29.54
2018-09-05T08:35:23.938Z,29.43
2018-09-05T08:37:52.963Z,29.77
2018-09-05T08:40:25.053Z,30.55
2018-09-05T08:42:54.643Z,31.02
2018-09-05T08:45:24.083Z,30.43
2018-09-05T08:47:53.025Z,29.58
2018-09-05T08:50:25.308Z,29.51
2018-09-05T08:52:54.409Z,29.91
2018-09-05T08:55:23.438Z,30.23
2018-09-05T08:57:52.866Z,31.17
2018-09-05T09:00:23.978Z,30.53
2018-09-05T09:02:52.908Z,30.63
2018-09-05T09:05:23.415Z,29.82
2018-09-05T09:07:52.466Z,29.73
2018-09-05T09:10:24.572Z,30.40
2018-09-05T09:12:53.904Z,31.05
2018-09-05T09:15:28.730Z,31.50
2018-09-05T09:17:58.292Z,31.69
2018-09-05T09:20:29.207Z,31.57
2018-09-05T09:23:00.211Z,30.69
2018-09-05T09:25:30.139Z,30.02
2018-09-05T09:27:59.145Z,30.14
2018-09-05T09:30:28.108Z,30.25
2018-09-05T09:32:57.041Z,30.46
2018-09-05T09:35:26.072Z,31.21
2018-09-05T09:37:55.008Z,31.60
2018-09-05T09:40:26.118Z,31.60
2018-09-05T09:42:55.075Z,31.36
2018-09-05T09:45:24.023Z,31.21
2018-09-05T09:47:53.036Z,31.29
2018-09-05T09:50:24.667Z,31.59
2018-09-05T09:52:53.722Z,32.45
2018-09-05T09:55:23.069Z,31.36
2018-09-05T09:57:52.008Z,30.00
2018-09-05T10:00:28.968Z,30.01
2018-09-05T10:03:02.914Z,30.04
2018-09-05T10:05:37.174Z,29.22
2018-09-05T10:08:11.230Z,28.86
2018-09-05T10:10:45.296Z,29.68
2018-09-05T10:13:19.996Z,30.81
2018-09-05T10:15:53.994Z,30.97
2018-09-05T10:18:27.778Z,31.51
2018-09-05T10:20:57.718Z,32.28
2018-09-05T10:23:27.038Z,32.68
2018-09-05T10:25:56.315Z,32.26
2018-09-05T10:28:25.531Z,32.82
2018-09-05T10:30:55.298Z,33.64
2018-09-05T10:33:24.824Z,33.71
2018-09-05T10:35:54.388Z,34.11
2018-09-05T10:38:23.668Z,33.57
2018-09-05T10:40:52.887Z,32.98
2018-09-05T10:43:22.411Z,33.05
2018-09-05T10:45:51.360Z,33.09
2018-09-05T10:48:20.642Z,32.10
2018-09-05T10:50:49.756Z,31.98
2018-09-05T10:53:18.895Z,32.34
2018-09-05T10:55:48.432Z,32.53
2018-09-05T10:58:17.557Z,33.75
2018-09-05T11:00:46.501Z,31.93
2018-09-05T11:03:15.937Z,31.48
2018-09-05T11:05:45.751Z,31.97
2018-09-05T11:08:15.004Z,32.25
2018-09-05T11:10:44.566Z,32.66
2018-09-05T11:13:13.964Z,32.40
2018-09-05T11:15:42.907Z,32.80
2018-09-05T11:18:11.898Z,32.10
2018-09-05T11:20:40.962Z,32.29
2018-09-05T11:23:09.918Z,33.53
2018-09-05T11:25:38.871Z,33.53
2018-09-05T11:28:07.836Z,32.88
2018-09-05T11:30:36.827Z,32.72
2018-09-05T11:33:05.928Z,32.85
2018-09-05T11:35:34.992Z,33.17
2018-09-05T11:38:03.941Z,33.36
2018-09-05T11:40:33.063Z,33.38
2018-09-05T11:43:02.108Z,32.70
2018-09-05T11:45:31.067Z,31.55
2018-09-05T11:47:59.971Z,32.25
2018-09-05T11:50:30.184Z,32.86
2018-09-05T11:52:59.264Z,33.25
2018-09-05T11:55:28.357Z,33.62
2018-09-05T11:57:57.463Z,32.12
2018-09-05T12:00:27.327Z,32.58
2018-09-05T12:02:56.354Z,31.41
2018-09-05T12:05:25.442Z,30.57
2018-09-05T12:07:54.527Z,29.92
2018-09-05T12:10:24.987Z,29.82
2018-09-05T12:12:53.973Z,29.55
2018-09-05T12:15:23.384Z,30.49
2018-09-05T12:17:52.960Z,31.51
2018-09-05T12:20:25.633Z,31.21
2018-09-05T12:22:54.875Z,30.90
2018-09-05T12:25:24.165Z,31.31
2018-09-05T12:27:53.520Z,31.86
2018-09-05T12:30:26.506Z,32.39
2018-09-05T12:32:56.222Z,32.46
2018-09-05T12:35:25.549Z,32.77
2018-09-05T12:37:55.009Z,32.94
2018-09-05T12:40:25.983Z,31.90
2018-09-05T12:42:55.124Z,32.07
2018-09-05T12:45:24.614Z,32.64
2018-09-05T12:47:54.194Z,32.56
2018-09-05T12:50:26.331Z,31.44
2018-09-05T12:52:56.060Z,30.54
2018-09-05T12:55:25.472Z,30.52
2018-09-05T12:57:54.605Z,30.66
2018-09-05T13:00:24.426Z,31.31
2018-09-05T13:02:53.912Z,32.27
2018-09-05T13:05:24.920Z,32.81
2018-09-05T13:07:54.263Z,33.40
2018-09-05T13:10:25.426Z,31.93
2018-09-05T13:12:54.659Z,30.92
2018-09-05T13:15:24.002Z,30.28
2018-09-05T13:17:53.500Z,30.04
2018-09-05T13:20:25.610Z,30.49
2018-09-05T13:22:54.860Z,31.32
2018-09-05T13:25:24.156Z,32.09
2018-09-05T13:27:53.365Z,32.50
2018-09-05T13:30:25.121Z,32.39
2018-09-05T13:32:54.858Z,32.70
2018-09-05T13:35:26.585Z,32.33
2018-09-05T13:37:55.762Z,32.20
2018-09-05T13:40:25.634Z,31.28
2018-09-05T13:42:54.801Z,31.22
2018-09-05T13:45:24.077Z,31.37
2018-09-05T13:47:53.235Z,31.35
2018-09-05T14:04:05.850Z,30.53
2018-09-05T14:06:41.690Z,30.84
2018-09-05T14:09:12.676Z,31.32
2018-09-05T14:11:42.660Z,31.60
2018-09-05T14:14:12.067Z,30.38
2018-09-05T14:16:41.426Z,29.93
2018-09-05T14:19:11.046Z,30.36
2018-09-05T14:21:40.237Z,30.32
2018-09-05T14:24:09.979Z,30.06
2018-09-05T14:26:39.594Z,30.01
2018-09-05T14:29:09.234Z,29.43
2018-09-05T14:31:38.462Z,28.71
2018-09-05T14:34:07.938Z,28.76
2018-09-05T14:36:37.334Z,28.72
2018-09-05T14:39:10.163Z,28.70
2018-09-05T14:41:39.332Z,28.50
2018-09-05T14:44:08.535Z,28.36
2018-09-05T14:46:37.839Z,28.30
2018-09-05T14:49:07.053Z,28.26
2018-09-05T14:51:36.090Z,28.35
2018-09-05T14:54:05.872Z,28.44
2018-09-05T14:56:35.091Z,28.58
2018-09-05T14:59:04.686Z,28.41
2018-09-05T15:01:33.820Z,28.22
2018-09-05T15:04:03.072Z,28.09
2018-09-05T15:06:32.257Z,27.99
2018-09-05T15:09:01.448Z,28.04
2018-09-05T15:11:30.469Z,28.06
2018-09-05T15:13:59.596Z,28.01
2018-09-05T15:16:28.848Z,27.84
2018-09-05T15:18:58.012Z,27.68
2018-09-05T15:21:27.016Z,27.53
2018-09-05T15:23:56.126Z,27.41
2018-09-05T15:26:25.214Z,27.46
2018-09-05T15:28:54.150Z,27.27
2018-09-05T15:31:23.448Z,26.96
2018-09-05T15:33:52.566Z,26.68
2018-09-05T15:36:22.034Z,26.48
2018-09-05T15:38:51.080Z,26.35
2018-09-05T15:41:20.646Z,26.22
2018-09-05T15:43:49.596Z,26.13
2018-09-05T15:46:20.633Z,26.07
2018-09-05T15:48:49.662Z,26.01
2018-09-05T15:51:18.984Z,25.93
2018-09-05T15:53:47.991Z,25.83
2018-09-05T15:56:17.013Z,25.79
2018-09-05T15:58:46.047Z,25.80
2018-09-05T16:01:15.035Z,25.73
2018-09-05T16:03:44.082Z,25.68
2018-09-05T16:06:13.001Z,25.67
2018-09-05T16:08:42.051Z,25.80
2018-09-05T16:11:11.069Z,25.70
2018-09-05T16:13:40.151Z,25.54
2018-09-05T16:16:09.084Z,25.38
2018-09-05T16:18:38.061Z,25.23
2018-09-05T16:21:07.049Z,25.30
2018-09-05T16:23:36.013Z,25.40
2018-09-05T16:26:04.986Z,25.38
2018-09-05T16:28:34.056Z,25.26
2018-09-05T16:31:03.115Z,25.32
2018-09-05T16:33:32.147Z,25.37
2018-09-05T16:36:01.458Z,25.19
2018-09-05T16:38:30.443Z,25.32
2018-09-05T16:40:59.424Z,25.63
2018-09-05T16:43:29.186Z,25.69
2018-09-05T16:45:58.349Z,25.81
2018-09-05T16:48:27.428Z,25.82
2018-09-05T16:50:56.401Z,25.80
2018-09-05T16:53:25.365Z,25.74
2018-09-05T16:55:54.500Z,25.84
2018-09-05T16:58:23.489Z,25.91
2018-09-05T17:00:53.387Z,25.92
2018-09-05T17:03:22.792Z,25.87
2018-09-05T17:05:51.814Z,25.72
2018-09-05T17:08:21.189Z,25.61
2018-09-05T17:10:50.164Z,25.43
2018-09-05T17:13:19.650Z,25.24
2018-09-05T17:15:48.631Z,25.05
2018-09-05T17:18:17.797Z,24.95
2018-09-05T17:20:46.853Z,24.80
2018-09-05T17:23:16.018Z,24.69
2018-09-05T17:25:45.224Z,24.64
2018-09-05T17:28:14.589Z,24.53
2018-09-05T17:30:43.671Z,24.42
2018-09-05T17:33:12.816Z,24.32
2018-09-05T17:35:41.920Z,24.22
2018-09-05T17:38:11.050Z,24.11
2018-09-05T17:40:40.197Z,24.05
2018-09-05T17:43:09.381Z,23.96
2018-09-05T17:45:38.548Z,23.88
2018-09-05T17:48:07.771Z,23.85
2018-09-05T17:50:37.025Z,23.68
2018-09-05T17:53:06.191Z,23.48
2018-09-05T17:55:35.255Z,23.20
2018-09-05T17:58:04.383Z,22.93
2018-09-05T18:00:33.653Z,23.31
2018-09-05T18:03:02.767Z,23.39
2018-09-05T18:05:38.149Z,23.37
2018-09-05T18:08:07.885Z,23.14
2018-09-05T18:10:37.067Z,22.88
2018-09-05T18:13:06.281Z,22.99
2018-09-05T18:15:35.525Z,23.20
2018-09-05T18:18:04.821Z,23.09
2018-09-05T18:20:34.055Z,22.97
2018-09-05T18:23:03.529Z,23.19
2018-09-05T18:25:32.720Z,23.33
2018-09-05T18:28:01.957Z,23.37
2018-09-05T18:30:31.065Z,23.31
2018-09-05T18:33:00.309Z,23.34
2018-09-05T18:35:29.514Z,23.28
2018-09-05T18:37:58.647Z,23.07
2018-09-05T18:40:27.755Z,22.88
2018-09-05T18:42:57.020Z,22.72
2018-09-05T18:45:27.055Z,22.52
2018-09-05T18:47:56.325Z,22.45
2018-09-05T18:50:25.500Z,22.71
2018-09-05T18:52:59.721Z,23.00
2018-09-05T18:55:32.163Z,23.09
2018-09-05T18:58:01.420Z,23.07
2018-09-05T19:00:30.770Z,22.80
2018-09-05T19:03:00.203Z,22.55
2018-09-05T19:05:29.447Z,22.35
2018-09-05T19:07:58.491Z,22.17
2018-09-05T19:10:27.591Z,22.20
2018-09-05T19:12:57.721Z,22.40
2018-09-05T19:15:27.294Z,22.36
2018-09-05T19:17:57.772Z,22.37
2018-09-05T19:20:26.896Z,22.44
2018-09-05T19:22:56.304Z,22.60
2018-09-05T19:25:25.704Z,22.57
2018-09-05T19:27:54.927Z,22.40
2018-09-05T19:30:26.328Z,22.48
2018-09-05T19:32:55.448Z,22.45
2018-09-05T19:35:24.638Z,22.59
2018-09-05T19:37:53.638Z,22.59
2018-09-05T19:40:24.397Z,22.60
2018-09-05T19:42:53.335Z,22.65
2018-09-05T19:45:23.178Z,22.61
2018-09-05T19:47:52.182Z,22.60
2018-09-05T19:50:23.403Z,22.69
2018-09-05T19:52:52.725Z,22.68
2018-09-05T19:55:22.185Z,22.49
2018-09-05T19:57:51.174Z,22.22
2018-09-05T20:00:22.643Z,22.26
2018-09-05T20:02:55.345Z,22.11
2018-09-05T20:05:24.557Z,21.74
2018-09-05T20:07:53.523Z,21.54
2018-09-05T20:10:23.696Z,21.64
2018-09-05T20:12:53.685Z,21.56
2018-09-05T20:15:23.199Z,21.38
2018-09-05T20:17:52.264Z,21.13
2018-09-05T20:20:21.793Z,20.99
2018-09-05T20:22:50.911Z,20.73
2018-09-05T20:25:20.389Z,20.56
2018-09-05T20:27:49.395Z,20.37
2018-09-05T20:30:18.443Z,20.20
2018-09-05T20:32:47.534Z,19.95
2018-09-05T20:35:17.904Z,19.69
2018-09-05T20:37:47.274Z,19.53
2018-09-05T20:40:16.522Z,19.36
2018-09-05T20:42:45.708Z,19.36
2018-09-05T20:45:16.104Z,19.58
2018-09-05T20:47:45.439Z,19.66
2018-09-05T20:50:16.002Z,19.43
2018-09-05T20:52:45.344Z,19.20
2018-09-05T20:55:14.483Z,19.06
2018-09-05T20:57:43.635Z,19.01
2018-09-05T21:00:12.788Z,18.95
2018-09-05T21:02:41.911Z,18.92
2018-09-05T21:05:11.020Z,18.92
2018-09-05T21:07:40.096Z,18.91
2018-09-05T21:10:09.288Z,18.92
2018-09-05T21:12:38.540Z,18.90
2018-09-05T21:15:14.142Z,19.04
2018-09-05T21:17:43.282Z,19.96
2018-09-05T21:20:12.339Z,20.10
2018-09-05T21:22:42.116Z,20.16
2018-09-05T21:25:11.224Z,20.16
2018-09-05T21:27:40.221Z,20.13
2018-09-05T21:30:09.310Z,20.15
2018-09-05T21:32:38.306Z,20.34
2018-09-05T21:35:07.460Z,20.34
2018-09-05T21:37:36.464Z,20.35
2018-09-05T21:40:05.721Z,20.22
2018-09-05T21:42:34.679Z,19.97
2018-09-05T21:45:03.708Z,19.75
2018-09-05T21:47:32.688Z,19.61
2018-09-05T21:50:01.603Z,19.72
2018-09-05T21:52:30.643Z,19.63
2018-09-05T21:54:59.662Z,19.64
2018-09-05T21:57:28.627Z,20.11
2018-09-05T21:59:57.677Z,20.20
2018-09-05T22:02:26.792Z,19.96
2018-09-05T22:04:55.887Z,19.57
2018-09-05T22:07:24.856Z,19.23
2018-09-05T22:09:53.838Z,18.97
2018-09-05T22:12:22.942Z,18.68
2018-09-05T22:14:51.882Z,18.39
2018-09-05T22:17:21.479Z,18.39
2018-09-05T22:19:50.456Z,18.12
2018-09-05T22:22:19.798Z,17.91
2018-09-05T22:24:48.770Z,17.84
2018-09-05T22:27:17.688Z,17.77
2018-09-05T22:29:46.641Z,17.72
2018-09-05T22:32:15.667Z,17.63
2018-09-05T22:34:44.602Z,17.56
2018-09-05T22:37:13.528Z,17.55
2018-09-05T22:39:42.604Z,17.55
2018-09-05T22:42:13.358Z,17.58
2018-09-05T22:45:55.262Z,17.60
2018-09-05T22:48:52.823Z,17.67
2018-09-05T22:53:45.753Z,17.77
2018-09-05T22:56:30.635Z,17.85
2018-09-05T22:59:36.402Z,17.87
2018-09-05T23:02:50.589Z,18.10
2018-09-05T23:07:48.702Z,18.09
2018-09-05T23:10:28.557Z,17.85
2018-09-05T23:15:10.719Z,17.99
2018-09-05T23:18:47.354Z,17.84
2018-09-05T23:21:20.555Z,17.90
2018-09-05T23:23:56.679Z,17.91
2018-09-05T23:26:26.003Z,17.78
2018-09-05T23:28:54.925Z,17.68
2018-09-05T23:31:24.332Z,17.65
2018-09-05T23:33:53.378Z,17.51
2018-09-05T23:36:23.004Z,17.45
2018-09-05T23:38:52.532Z,17.43
2018-09-05T23:41:22.000Z,17.37
2018-09-05T23:43:51.052Z,17.31
2018-09-05T23:46:20.734Z,17.52
2018-09-05T23:48:49.714Z,18.02
2018-09-05T23:51:18.697Z,18.50
2018-09-05T23:53:47.657Z,19.02
2018-09-05T23:56:16.839Z,18.89
2018-09-05T23:58:45.768Z,18.56
